createdAt,value
2019-04-26T00:01:51.063Z,1.50
2019-04-26T00:04:48.182Z,1.70
2019-04-26T00:07:47.431Z,1.60
2019-04-26T00:11:09.627Z,1.77
2019-04-26T00:14:21.066Z,1.60
2019-04-26T00:17:37.619Z,1.87
2019-04-26T00:20:39.579Z,1.70
2019-04-26T00:23:42.946Z,1.73
2019-04-26T00:26:47.646Z,2.13
2019-04-26T00:29:43.782Z,2.00
2019-04-26T00:32:47.413Z,1.70
2019-04-26T00:35:55.633Z,1.77
2019-04-26T00:39:12.864Z,1.90
2019-04-26T00:42:18.552Z,1.93
2019-04-26T00:45:22.888Z,1.80
2019-04-26T00:48:42.943Z,1.80
2019-04-26T00:51:42.019Z,1.90
2019-04-26T00:54:37.984Z,1.70
2019-04-26T00:57:43.518Z,1.80
2019-04-26T01:00:54.114Z,2.03
2019-04-26T01:04:00.004Z,1.90
2019-04-26T01:07:01.952Z,2.20
2019-04-26T01:09:51.582Z,2.40
2019-04-26T01:12:59.794Z,2.20
2019-04-26T01:15:49.131Z,2.13
2019-04-26T01:18:44.631Z,2.30
2019-04-26T01:21:47.887Z,2.10
2019-04-26T01:24:57.519Z,2.50
2019-04-26T01:28:12.763Z,2.10
2019-04-26T01:31:22.701Z,2.23
2019-04-26T01:34:26.155Z,2.50
2019-04-26T01:37:31.628Z,2.50
2019-04-26T01:40:30.204Z,2.70
2019-04-26T01:43:40.852Z,2.20
2019-04-26T01:46:54.780Z,2.40
2019-04-26T01:49:57.014Z,2.30
2019-04-26T01:53:05.039Z,1.93
2019-04-26T01:56:09.340Z,2.13
2019-04-26T01:59:15.273Z,2.27
2019-04-26T02:02:41.295Z,2.13
2019-04-26T02:05:35.774Z,2.20
2019-04-26T02:08:47.373Z,2.17
2019-04-26T02:11:59.649Z,2.27
2019-04-26T02:14:59.156Z,2.00
2019-04-26T02:18:05.901Z,2.47
2019-04-26T02:21:31.964Z,2.67
2019-04-26T02:24:55.984Z,2.30
2019-04-26T02:27:56.427Z,2.20
2019-04-26T02:30:49.144Z,2.40
2019-04-26T02:37:04.811Z,3.17
2019-04-26T02:40:17.456Z,2.50
2019-04-26T02:43:28.599Z,2.47
2019-04-26T02:46:38.155Z,2.50
2019-04-26T02:49:58.052Z,2.60
2019-04-26T02:53:28.813Z,2.87
2019-04-26T02:57:08.370Z,3.13
2019-04-26T03:00:32.143Z,2.60
2019-04-26T03:03:40.130Z,3.30
2019-04-26T03:06:34.421Z,3.93
2019-04-26T03:09:39.198Z,3.67
2019-04-26T03:12:48.439Z,4.20
2019-04-26T03:16:16.781Z,4.57
2019-04-26T03:19:48.959Z,5.10
2019-04-26T03:23:09.120Z,4.87
2019-04-26T03:26:26.659Z,5.80
2019-04-26T03:30:18.263Z,5.30
2019-04-26T03:33:36.239Z,5.83
2019-04-26T03:36:54.778Z,6.13
2019-04-26T03:40:11.707Z,5.60
2019-04-26T03:43:47.271Z,6.20
2019-04-26T03:47:07.375Z,6.00
2019-04-26T03:50:40.904Z,6.70
2019-04-26T03:53:47.747Z,6.93
2019-04-26T03:57:00.186Z,7.10
2019-04-26T04:00:30.565Z,7.67
2019-04-26T04:03:40.288Z,6.70
2019-04-26T04:06:56.690Z,7.70
2019-04-26T04:09:52.334Z,7.40
2019-04-26T04:13:14.537Z,7.20
2019-04-26T04:15:53.579Z,6.57
2019-04-26T04:18:47.551Z,7.33
2019-04-26T04:22:00.386Z,6.40
2019-04-26T04:25:09.781Z,6.57
2019-04-26T04:28:24.549Z,8.37
2019-04-26T04:31:38.353Z,7.07
2019-04-26T04:34:35.906Z,6.80
2019-04-26T04:37:19.280Z,7.20
2019-04-26T04:40:09.272Z,7.77
2019-04-26T04:43:14.026Z,7.47
2019-04-26T04:46:12.064Z,6.70
2019-04-26T04:49:37.944Z,7.40
2019-04-26T04:52:24.249Z,7.10
2019-04-26T04:55:28.447Z,7.43
2019-04-26T04:58:52.341Z,7.73
2019-04-26T05:02:44.922Z,7.77
2019-04-26T05:06:23.729Z,7.67
2019-04-26T05:10:04.990Z,8.33
2019-04-26T05:13:41.527Z,8.20
2019-04-26T05:16:57.234Z,8.30
2019-04-26T05:20:37.654Z,7.70
2019-04-26T05:24:06.129Z,7.23
2019-04-26T05:27:34.633Z,7.17
2019-04-26T05:31:33.614Z,7.97
2019-04-26T05:35:09.706Z,8.40
2019-04-26T05:38:23.137Z,6.97
2019-04-26T05:41:39.439Z,7.50
2019-04-26T05:44:58.920Z,6.50
2019-04-26T05:48:24.550Z,7.37
2019-04-26T05:51:50.542Z,7.50
2019-04-26T05:55:14.095Z,7.83
2019-04-26T05:58:41.027Z,8.37
2019-04-26T06:02:16.692Z,7.70
2019-04-26T06:06:22.392Z,7.70
2019-04-26T06:10:08.534Z,7.53
2019-04-26T06:13:43.935Z,7.20
2019-04-26T06:17:27.045Z,7.83
2019-04-26T06:20:45.008Z,6.97
2019-04-26T06:24:16.668Z,6.30
2019-04-26T06:27:46.484Z,6.80
2019-04-26T06:31:05.868Z,7.50
2019-04-26T06:34:29.217Z,7.33
2019-04-26T06:37:55.709Z,6.20
2019-04-26T06:41:21.827Z,6.63
2019-04-26T06:44:34.010Z,6.90
2019-04-26T06:47:33.845Z,6.83
2019-04-26T06:50:51.471Z,6.43
2019-04-26T06:54:03.550Z,6.60
2019-04-26T06:57:31.807Z,6.10
2019-04-26T07:00:54.504Z,6.13
2019-04-26T07:04:19.134Z,5.73
2019-04-26T07:07:41.452Z,6.23
2019-04-26T07:11:24.391Z,6.07
2019-04-26T07:15:04.341Z,6.23
2019-04-26T07:18:32.745Z,6.17
2019-04-26T07:21:58.115Z,5.63
2019-04-26T07:25:24.824Z,6.03
2019-04-26T07:28:43.965Z,6.80
2019-04-26T07:32:07.451Z,5.73
2019-04-26T07:35:43.976Z,6.40
2019-04-26T07:39:19.497Z,5.77
2019-04-26T07:42:26.798Z,5.60
2019-04-26T07:45:43.914Z,6.20
2019-04-26T07:49:24.352Z,5.53
2019-04-26T07:52:56.096Z,6.00
2019-04-26T07:56:19.899Z,6.10
2019-04-26T07:59:37.472Z,5.63
2019-04-26T08:03:08.710Z,6.30
2019-04-26T08:06:25.081Z,5.47
2019-04-26T08:09:27.150Z,5.77
2019-04-26T08:12:48.921Z,6.00
2019-04-26T08:16:17.135Z,5.67
2019-04-26T08:19:28.212Z,6.20
2019-04-26T08:22:37.254Z,5.83
2019-04-26T08:25:56.249Z,6.03
2019-04-26T08:29:06.949Z,5.70
2019-04-26T08:32:17.042Z,6.20
2019-04-26T08:35:44.306Z,5.73
2019-04-26T08:38:40.635Z,5.33
2019-04-26T08:41:45.678Z,5.77
2019-04-26T08:45:13.909Z,6.70
2019-04-26T08:48:27.782Z,6.40
2019-04-26T08:51:38.339Z,5.87
2019-04-26T08:54:40.459Z,6.27
2019-04-26T08:57:47.126Z,4.83
2019-04-26T09:01:06.531Z,4.90
2019-04-26T09:04:17.140Z,5.27
2019-04-26T09:07:27.184Z,4.87
2019-04-26T09:10:43.327Z,4.57
2019-04-26T09:13:49.816Z,4.97
2019-04-26T09:17:00.623Z,4.97
2019-04-26T09:20:09.471Z,4.30
2019-04-26T09:26:17.058Z,4.70
2019-04-26T09:29:32.083Z,5.30
2019-04-26T09:32:53.722Z,4.60
2019-04-26T09:36:02.435Z,4.60
2019-04-26T09:39:03.886Z,4.37
2019-04-26T09:42:13.269Z,4.57
2019-04-26T09:45:25.768Z,4.37
2019-04-26T09:48:36.641Z,4.00
2019-04-26T09:51:40.433Z,4.10
2019-04-26T09:54:36.956Z,3.47
2019-04-26T09:57:42.477Z,3.53
2019-04-26T10:00:53.079Z,3.17
2019-04-26T10:04:01.584Z,3.27
2019-04-26T10:07:08.075Z,3.47
2019-04-26T10:10:22.696Z,3.63
2019-04-26T10:13:24.436Z,3.30
2019-04-26T10:16:42.335Z,4.03
2019-04-26T10:19:58.996Z,4.50
2019-04-26T10:23:00.312Z,3.93
2019-04-26T10:26:08.927Z,4.10
2019-04-26T10:29:15.061Z,3.30
2019-04-26T10:32:21.551Z,3.30
2019-04-26T10:35:21.548Z,3.70
2019-04-26T10:38:25.450Z,3.90
2019-04-26T10:41:31.554Z,3.80
2019-04-26T10:44:35.858Z,4.20
2019-04-26T10:47:28.942Z,3.90
2019-04-26T10:50:35.276Z,3.60
2019-04-26T10:53:50.610Z,4.10
2019-04-26T10:57:19.706Z,4.80
2019-04-26T11:00:14.136Z,5.03
2019-04-26T11:03:26.213Z,4.40
2019-04-26T11:06:31.559Z,3.93
2019-04-26T11:09:31.482Z,4.10
2019-04-26T11:12:25.932Z,5.17
2019-04-26T11:15:32.718Z,5.10
2019-04-26T11:18:32.420Z,3.83
2019-04-26T11:21:39.805Z,4.00
2019-04-26T11:24:56.573Z,3.90
2019-04-26T11:27:59.210Z,4.80
2019-04-26T11:30:34.559Z,4.30
2019-04-26T11:33:44.624Z,4.40
2019-04-26T11:36:45.161Z,4.70
2019-04-26T11:39:46.289Z,4.60
2019-04-26T11:42:51.129Z,4.37
2019-04-26T11:45:45.405Z,4.47
2019-04-26T11:48:58.511Z,4.07
2019-04-26T11:51:23.581Z,4.47
2019-04-26T11:54:12.481Z,4.40
2019-04-26T11:57:19.141Z,3.77
2019-04-26T12:00:28.639Z,4.20
2019-04-26T12:03:31.414Z,3.40
2019-04-26T12:06:43.000Z,3.00
2019-04-26T12:09:51.460Z,2.93
2019-04-26T12:12:51.726Z,3.20
2019-04-26T12:16:05.138Z,2.90
2019-04-26T12:19:05.566Z,2.63
2019-04-26T12:22:10.115Z,4.50
2019-04-26T12:25:18.447Z,3.10
2019-04-26T12:28:14.400Z,3.27
2019-04-26T12:31:17.626Z,3.30
2019-04-26T12:34:20.154Z,3.40
2019-04-26T12:37:21.198Z,2.77
2019-04-26T12:40:24.815Z,2.80
2019-04-26T12:43:31.440Z,2.60
2019-04-26T12:46:54.096Z,2.50
2019-04-26T12:50:03.409Z,2.90
2019-04-26T12:53:02.941Z,2.27
2019-04-26T12:56:07.585Z,3.70
2019-04-26T12:59:15.640Z,2.80
2019-04-26T13:02:11.324Z,3.30
2019-04-26T13:05:10.113Z,3.30
2019-04-26T13:08:13.156Z,2.83
2019-04-26T13:11:48.519Z,2.80
2019-04-26T13:15:07.894Z,3.50
2019-04-26T13:18:12.023Z,3.67
2019-04-26T13:21:10.885Z,3.43
2019-04-26T13:24:16.511Z,2.57
2019-04-26T13:27:15.590Z,3.03
2019-04-26T13:30:32.261Z,2.77
2019-04-26T13:33:17.709Z,2.87
2019-04-26T13:36:32.028Z,2.80
2019-04-26T13:39:34.379Z,2.50
2019-04-26T13:42:29.961Z,2.87
2019-04-26T13:45:28.300Z,3.07
2019-04-26T13:48:43.423Z,3.20
2019-04-26T13:51:57.895Z,2.70
2019-04-26T13:54:51.340Z,2.50
2019-04-26T13:57:49.239Z,2.80
2019-04-26T14:00:51.058Z,2.63
2019-04-26T14:03:47.142Z,2.93
2019-04-26T14:06:48.684Z,2.67
2019-04-26T14:09:56.821Z,2.77
2019-04-26T14:13:08.414Z,3.07
2019-04-26T14:16:11.901Z,2.43
2019-04-26T14:19:15.231Z,1.87
2019-04-26T14:22:21.328Z,2.37
2019-04-26T14:25:19.968Z,2.10
2019-04-26T14:28:20.258Z,2.40
2019-04-26T14:31:21.289Z,2.00
2019-04-26T14:34:18.774Z,2.00
2019-04-26T14:37:19.365Z,2.30
2019-04-26T14:40:28.282Z,2.37
2019-04-26T14:43:41.000Z,2.20
2019-04-26T14:46:48.733Z,2.10
2019-04-26T14:49:49.006Z,2.13
2019-04-26T14:52:27.734Z,2.63
2019-04-26T14:55:01.668Z,2.50
2019-04-26T14:57:39.284Z,2.10
2019-04-26T15:00:16.615Z,1.90
2019-04-26T15:03:06.852Z,2.10
2019-04-26T15:06:12.863Z,2.30
2019-04-26T15:09:02.960Z,1.67
2019-04-26T15:11:53.343Z,1.37
2019-04-26T15:14:28.292Z,1.73
2019-04-26T15:17:26.448Z,1.57
2019-04-26T15:20:07.155Z,2.13
2019-04-26T15:22:52.907Z,1.50
2019-04-26T15:25:27.788Z,1.80
2019-04-26T15:28:19.862Z,1.40
2019-04-26T15:30:59.779Z,1.57
2019-04-26T15:33:53.948Z,1.50
2019-04-26T15:36:32.889Z,2.10
2019-04-26T15:39:13.150Z,1.33
2019-04-26T15:42:17.696Z,1.17
2019-04-26T15:45:13.023Z,1.30
2019-04-26T15:48:37.970Z,1.50
2019-04-26T15:51:24.405Z,1.10
2019-04-26T15:53:57.736Z,1.33
2019-04-26T15:56:35.837Z,1.10
2019-04-26T15:59:18.462Z,1.50
2019-04-26T16:01:59.028Z,1.60
2019-04-26T16:04:51.282Z,0.93
2019-04-26T16:07:29.166Z,1.20
2019-04-26T16:10:06.287Z,1.13
2019-04-26T16:12:43.383Z,1.20
2019-04-26T16:15:23.420Z,1.00
2019-04-26T16:18:04.233Z,1.27
2019-04-26T16:20:50.764Z,1.00
2019-04-26T16:23:41.588Z,1.10
2019-04-26T16:26:15.809Z,1.10
2019-04-26T16:29:20.523Z,0.80
2019-04-26T16:32:22.035Z,1.00
2019-04-26T16:34:52.892Z,0.80
2019-04-26T16:37:44.454Z,0.90
2019-04-26T16:40:17.775Z,0.90
2019-04-26T16:42:56.575Z,1.30
2019-04-26T16:45:37.210Z,1.20
2019-04-26T16:48:25.569Z,1.23
2019-04-26T16:51:08.320Z,2.70
2019-04-26T16:54:02.840Z,1.70
2019-04-26T16:56:28.319Z,1.17
2019-04-26T16:59:22.402Z,1.20
2019-04-26T17:02:02.401Z,1.30
2019-04-26T17:04:49.319Z,1.00
2019-04-26T17:07:30.585Z,1.00
2019-04-26T17:10:06.478Z,1.20
2019-04-26T17:12:54.239Z,1.20
2019-04-26T17:15:32.609Z,1.20
2019-04-26T17:18:13.386Z,1.33
2019-04-26T17:20:58.807Z,1.30
2019-04-26T17:24:00.728Z,1.30
2019-04-26T17:26:38.247Z,1.07
2019-04-26T17:29:28.672Z,1.10
2019-04-26T17:32:20.978Z,1.10
2019-04-26T17:34:54.539Z,1.20
2019-04-26T17:37:41.082Z,1.30
2019-04-26T17:40:16.220Z,1.30
2019-04-26T17:42:48.965Z,1.33
2019-04-26T17:45:23.808Z,1.20
2019-04-26T17:48:14.126Z,1.20
2019-04-26T17:50:57.599Z,0.97
2019-04-26T17:53:56.126Z,1.27
2019-04-26T17:56:26.135Z,1.23
2019-04-26T17:59:09.295Z,1.30
2019-04-26T18:02:00.786Z,1.40
2019-04-26T18:04:58.190Z,1.30
2019-04-26T18:07:40.656Z,1.50
2019-04-26T18:10:10.382Z,1.50
2019-04-26T18:12:50.945Z,1.30
2019-04-26T18:15:27.752Z,1.20
2019-04-26T18:18:28.264Z,1.60
2019-04-26T18:21:27.996Z,1.90
2019-04-26T18:24:15.430Z,16.07
2019-04-26T18:26:59.045Z,1.27
2019-04-26T18:29:33.972Z,1.30
2019-04-26T18:32:04.755Z,0.80
2019-04-26T18:34:40.237Z,0.70
2019-04-26T18:37:07.460Z,0.93
2019-04-26T18:39:37.433Z,1.00
2019-04-26T18:42:21.181Z,0.80
2019-04-26T18:45:07.714Z,0.67
2019-04-26T18:48:01.271Z,0.60
2019-04-26T18:50:51.061Z,0.60
2019-04-26T18:53:50.393Z,0.70
2019-04-26T18:56:23.970Z,0.60
2019-04-26T18:59:12.915Z,0.50
2019-04-26T19:01:50.096Z,0.40
2019-04-26T19:04:36.967Z,0.70
2019-04-26T19:07:32.230Z,0.50
2019-04-26T19:10:21.489Z,0.50
2019-04-26T19:13:36.322Z,0.60
2019-04-26T19:16:58.800Z,0.70
2019-04-26T19:20:02.813Z,0.57
2019-04-26T19:22:35.523Z,0.70
2019-04-26T19:25:29.958Z,5.20
2019-04-26T19:28:28.455Z,1.53
2019-04-26T19:30:58.905Z,1.40
2019-04-26T19:33:35.950Z,3.00
2019-04-26T19:36:13.571Z,10.40
2019-04-26T19:38:49.925Z,7.40
2019-04-26T19:41:27.189Z,2.90
2019-04-26T19:44:04.687Z,3.47
2019-04-26T19:47:06.645Z,2.47
2019-04-26T19:50:17.046Z,1.70
2019-04-26T19:53:16.557Z,1.40
2019-04-26T19:56:03.050Z,1.10
2019-04-26T19:58:36.449Z,1.00
2019-04-26T20:01:12.276Z,1.20
2019-04-26T20:03:55.326Z,1.13
2019-04-26T20:06:32.224Z,1.10
2019-04-26T20:09:13.625Z,1.20
2019-04-26T20:11:58.094Z,0.90
2019-04-26T20:14:45.040Z,1.40
2019-04-26T20:17:37.439Z,1.07
2019-04-26T20:20:19.431Z,1.00
2019-04-26T20:23:08.065Z,1.30
2019-04-26T20:26:09.014Z,3.43
2019-04-26T20:29:40.746Z,1.10
2019-04-26T20:32:52.438Z,1.23
2019-04-26T20:36:01.322Z,1.50
2019-04-26T20:39:08.566Z,1.70
2019-04-26T20:42:12.582Z,1.30
2019-04-26T20:45:08.309Z,1.30
2019-04-26T20:47:55.619Z,1.30
2019-04-26T20:50:48.577Z,1.30
2019-04-26T20:53:54.981Z,1.53
2019-04-26T20:56:59.096Z,1.20
2019-04-26T21:00:07.769Z,1.40
2019-04-26T21:03:01.624Z,1.43
2019-04-26T21:05:59.296Z,1.50
2019-04-26T21:08:54.181Z,1.30
2019-04-26T21:11:57.338Z,1.30
2019-04-26T21:15:08.668Z,1.23
2019-04-26T21:18:04.047Z,1.33
2019-04-26T21:21:10.494Z,1.20
2019-04-26T21:24:01.732Z,1.40
2019-04-26T21:27:25.669Z,1.53
2019-04-26T21:30:23.086Z,1.60
2019-04-26T21:33:28.602Z,1.40
2019-04-26T21:36:53.178Z,1.90
2019-04-26T21:40:16.937Z,1.70
2019-04-26T21:43:14.779Z,1.80
2019-04-26T21:46:19.109Z,2.30
2019-04-26T21:49:00.989Z,1.83
2019-04-26T21:51:58.792Z,1.87
2019-04-26T21:54:57.233Z,1.87
2019-04-26T21:57:50.749Z,1.80
2019-04-26T22:01:05.240Z,1.87
2019-04-26T22:04:01.014Z,1.93
2019-04-26T22:06:53.459Z,2.07
2019-04-26T22:10:12.026Z,2.30
2019-04-26T22:13:16.244Z,2.00
2019-04-26T22:16:35.965Z,1.80
2019-04-26T22:19:58.960Z,2.27
2019-04-26T22:23:25.332Z,1.97
2019-04-26T22:26:38.055Z,2.03
2019-04-26T22:29:34.352Z,2.13
2019-04-26T22:32:29.824Z,2.07
2019-04-26T22:35:26.050Z,2.07
2019-04-26T22:38:23.797Z,2.23
2019-04-26T22:41:28.665Z,2.10
2019-04-26T22:44:31.180Z,1.80
2019-04-26T22:47:47.296Z,2.10
2019-04-26T22:50:45.879Z,1.80
2019-04-26T22:53:49.442Z,2.47
2019-04-26T22:57:01.173Z,1.90
2019-04-26T23:00:02.611Z,1.87
2019-04-26T23:02:58.115Z,1.90
2019-04-26T23:06:00.625Z,2.03
2019-04-26T23:08:59.923Z,2.10
2019-04-26T23:12:25.071Z,2.20
2019-04-26T23:15:40.352Z,1.83
2019-04-26T23:18:53.730Z,1.70
2019-04-26T23:21:59.714Z,1.93
2019-04-26T23:25:06.244Z,2.20
2019-04-26T23:28:05.044Z,2.00
2019-04-26T23:31:17.173Z,2.17
2019-04-26T23:34:25.170Z,2.27
2019-04-26T23:37:32.634Z,1.87
2019-04-26T23:40:29.715Z,2.20
2019-04-26T23:43:32.288Z,2.00
2019-04-26T23:46:44.333Z,1.70
2019-04-26T23:49:57.294Z,1.80
2019-04-26T23:52:58.433Z,2.00
2019-04-26T23:55:59.710Z,1.80
2019-04-26T23:59:05.572Z,2.10
